首页
METAR-TAF:

METAR-TAF

机场 :

布朗斯维克, 喬治亞, 美国

纬度: 31-15N, 经度: 081-28W, 海拔: 8米

当前天气观测

该预报发布于26分钟前的23:35 UTC
风速14节,风向东北,有时为17节阵风
温度 24°C
湿度 94%
气压 1013 hPa
能見度: 16.1公里
散云层高于1000英尺
多云层高于1500英尺
阴天层高于3600英尺

METAR: KBQK 262335Z AUTO 05014G17KT 10SM SCT010 BKN015 OVC036 24/23 A2992 RMK AO2 T02360225

时间: 20:01 (00:01 UTC)


TAF: 丢失

超过4000个机场的气象观测和天气预报(METAR&TAF报告)。

可查询的气象台以黄色和红色小点在地图上表示。

将鼠标移到小点上方,可查看气象台名称。

然后点击查看天气观测和预报。

如需切换地图:点击带黑十字的绿色按钮放大地图;点击带横线的绿色按钮缩小地图;或者点击绿色箭头查看邻近地区的地图。


METAR-TAF: